Strona główna
METAR-TAF:

METAR-TAF

Lotnisko :

Port lotniczy Asunción

Asunción, Paragwaj

Szerokość geograficzna: 25-16S, Długość geograficzna: 057-38W, wysokość: 101 m

Aktualna obserwacja pogody

Raport powstał 24 minut temu, godzina 16:00 UTC
Wiatr 2 kt z kierunków zmiennych
Temperatura 21°C
Wilgotność 49%
Ciśnienie 1019 hPa
Widzialność 10 km lub więcej
Mało chmury na wysokości 4000 ft

METAR: SGAS 211600Z VRB02KT 9999 FEW040 21/10 Q1019

czas: 12:24 (16:24 UTC)

Prognoza

Raport powstał 5 godziny i 49 minut temu, godzina 10:35 UTC
Prognoza ważna od 21 godzina 12 UTC do 22 godzina 12 UTC
Wiatr 4 kt od północny wschód
Widzialność 10 km lub więcej
Brak chmur poniżej 1500 m i brak chmur cumulonimbus
Stopniowe zmiany
od 21 godzina 18 UTC do 21 godzina 21 UTC
Wiatr 8 kt od południe

TAF: SGAS 211035Z 2112/2212 05004KT CAVOK TX22/2119Z TN10/2209Z BECMG 2118/2121 17008KT

Obserwacja i prognoza pogody dla ponad 4000 lotnisk (raport METAR i TAF).

Dostępne stacje oznaczono żółtymi i czerwonymi punktami na mapie.

Najedź kursorem aby zobaczyć nazwę stacji.

Kliknij aby zobaczyć obserwacje i prognozy pogody.

Aby zmienić mapę: kliknij na zielony przycisk z czarnym krzyżykiem, aby powiększyć; na zielony przycisk z myślnikiem, aby pomniejszyć; na zielone strzałki, aby przejść do map sąsiednich.


METAR-TAF: